sensor_id;sensor_type;location;lat;lon;timestamp;P1;durP1;ratioP1;P2;durP2;ratioP2
9997;SDS011;5038;53.064;8.624;2022-12-07T00:01:18;19.70;;;15.47;;
9997;SDS011;5038;53.064;8.624;2022-12-07T00:03:48;19.93;;;15.87;;
9997;SDS011;5038;53.064;8.624;2022-12-07T00:06:18;21.17;;;15.63;;
9997;SDS011;5038;53.064;8.624;2022-12-07T00:08:48;18.83;;;15.13;;
9997;SDS011;5038;53.064;8.624;2022-12-07T00:11:17;19.33;;;15.53;;
9997;SDS011;5038;53.064;8.624;2022-12-07T00:13:46;19.03;;;16.17;;
9997;SDS011;5038;53.064;8.624;2022-12-07T00:16:15;19.17;;;16.43;;
9997;SDS011;5038;53.064;8.624;2022-12-07T00:18:45;25.53;;;16.70;;
9997;SDS011;5038;53.064;8.624;2022-12-07T00:21:13;20.03;;;15.73;;
9997;SDS011;5038;53.064;8.624;2022-12-07T00:23:44;19.00;;;16.33;;
9997;SDS011;5038;53.064;8.624;2022-12-07T00:26:15;22.13;;;16.50;;
9997;SDS011;5038;53.064;8.624;2022-12-07T00:28:44;19.23;;;16.57;;
9997;SDS011;5038;53.064;8.624;2022-12-07T00:31:14;23.10;;;15.43;;
9997;SDS011;5038;53.064;8.624;2022-12-07T00:33:44;22.30;;;15.90;;
9997;SDS011;5038;53.064;8.624;2022-12-07T00:36:14;19.70;;;15.23;;
9997;SDS011;5038;53.064;8.624;2022-12-07T00:38:51;19.23;;;16.07;;
9997;SDS011;5038;53.064;8.624;2022-12-07T00:41:20;21.43;;;15.60;;
9997;SDS011;5038;53.064;8.624;2022-12-07T00:43:49;18.10;;;14.80;;
9997;SDS011;5038;53.064;8.624;2022-12-07T00:46:18;20.90;;;14.97;;
9997;SDS011;5038;53.064;8.624;2022-12-07T00:48:47;19.20;;;15.03;;
9997;SDS011;5038;53.064;8.624;2022-12-07T00:51:17;19.70;;;15.23;;
9997;SDS011;5038;53.064;8.624;2022-12-07T00:53:46;22.00;;;13.40;;
9997;SDS011;5038;53.064;8.624;2022-12-07T00:56:19;16.97;;;12.10;;
9997;SDS011;5038;53.064;8.624;2022-12-07T00:58:52;20.00;;;12.70;;
9997;SDS011;5038;53.064;8.624;2022-12-07T01:01:22;17.30;;;12.00;;
9997;SDS011;5038;53.064;8.624;2022-12-07T01:03:51;11.70;;;9.80;;
9997;SDS011;5038;53.064;8.624;2022-12-07T01:06:20;15.40;;;11.53;;
9997;SDS011;5038;53.064;8.624;2022-12-07T01:08:49;15.83;;;10.20;;
9997;SDS011;5038;53.064;8.624;2022-12-07T01:11:20;16.43;;;9.73;;
9997;SDS011;5038;53.064;8.624;2022-12-07T01:13:49;17.70;;;9.90;;
9997;SDS011;5038;53.064;8.624;2022-12-07T01:16:18;13.30;;;8.50;;
9997;SDS011;5038;53.064;8.624;2022-12-07T01:18:48;12.53;;;8.40;;
9997;SDS011;5038;53.064;8.624;2022-12-07T01:21:19;14.30;;;10.37;;
9997;SDS011;5038;53.064;8.624;2022-12-07T01:23:48;15.27;;;9.40;;
9997;SDS011;5038;53.064;8.624;2022-12-07T01:26:17;14.03;;;9.27;;
9997;SDS011;5038;53.064;8.624;2022-12-07T01:28:48;12.10;;;8.40;;
9997;SDS011;5038;53.064;8.624;2022-12-07T01:31:17;14.90;;;8.90;;
9997;SDS011;5038;53.064;8.624;2022-12-07T01:33:48;11.70;;;7.80;;
9997;SDS011;5038;53.064;8.624;2022-12-07T01:36:19;10.53;;;7.93;;
9997;SDS011;5038;53.064;8.624;2022-12-07T01:38:49;14.30;;;8.83;;
9997;SDS011;5038;53.064;8.624;2022-12-07T01:41:20;12.83;;;8.27;;
9997;SDS011;5038;53.064;8.624;2022-12-07T01:44:09;15.27;;;8.07;;
9997;SDS011;5038;53.064;8.624;2022-12-07T01:46:48;11.60;;;8.50;;
9997;SDS011;5038;53.064;8.624;2022-12-07T01:49:19;13.40;;;8.93;;
9997;SDS011;5038;53.064;8.624;2022-12-07T01:51:54;12.27;;;8.07;;
9997;SDS011;5038;53.064;8.624;2022-12-07T01:54:25;11.20;;;8.83;;
9997;SDS011;5038;53.064;8.624;2022-12-07T01:56:55;14.23;;;8.47;;
9997;SDS011;5038;53.064;8.624;2022-12-07T01:59:24;15.03;;;9.30;;
9997;SDS011;5038;53.064;8.624;2022-12-07T02:01:53;12.77;;;8.77;;
9997;SDS011;5038;53.064;8.624;2022-12-07T02:04:23;14.43;;;9.77;;
9997;SDS011;5038;53.064;8.624;2022-12-07T02:06:51;13.87;;;9.80;;
9997;SDS011;5038;53.064;8.624;2022-12-07T02:09:23;13.23;;;9.17;;
9997;SDS011;5038;53.064;8.624;2022-12-07T02:11:51;12.80;;;8.37;;
9997;SDS011;5038;53.064;8.624;2022-12-07T02:14:22;13.10;;;9.80;;
9997;SDS011;5038;53.064;8.624;2022-12-07T02:16:57;18.90;;;9.83;;
9997;SDS011;5038;53.064;8.624;2022-12-07T02:25:55;11.87;;;8.37;;
9997;SDS011;5038;53.064;8.624;2022-12-07T02:28:44;14.57;;;9.67;;
9997;SDS011;5038;53.064;8.624;2022-12-07T02:31:26;15.63;;;9.90;;
9997;SDS011;5038;53.064;8.624;2022-12-07T02:33:57;13.33;;;10.57;;
9997;SDS011;5038;53.064;8.624;2022-12-07T02:36:33;15.27;;;9.47;;
9997;SDS011;5038;53.064;8.624;2022-12-07T02:39:06;13.33;;;8.97;;
9997;SDS011;5038;53.064;8.624;2022-12-07T02:41:43;15.00;;;10.80;;
9997;SDS011;5038;53.064;8.624;2022-12-07T02:44:16;15.60;;;9.60;;
9997;SDS011;5038;53.064;8.624;2022-12-07T02:46:49;12.97;;;8.63;;
9997;SDS011;5038;53.064;8.624;2022-12-07T02:49:21;10.87;;;8.60;;
9997;SDS011;5038;53.064;8.624;2022-12-07T02:51:51;12.77;;;7.87;;
9997;SDS011;5038;53.064;8.624;2022-12-07T02:54:20;11.00;;;7.67;;
9997;SDS011;5038;53.064;8.624;2022-12-07T02:56:50;13.50;;;7.70;;
9997;SDS011;5038;53.064;8.624;2022-12-07T02:59:28;10.50;;;6.70;;
9997;SDS011;5038;53.064;8.624;2022-12-07T03:02:06;14.10;;;7.50;;
9997;SDS011;5038;53.064;8.624;2022-12-07T03:04:46;11.97;;;6.83;;
9997;SDS011;5038;53.064;8.624;2022-12-07T03:07:25;12.60;;;7.03;;
9997;SDS011;5038;53.064;8.624;2022-12-07T03:10:01;10.23;;;6.97;;
9997;SDS011;5038;53.064;8.624;2022-12-07T03:12:37;12.33;;;7.80;;
9997;SDS011;5038;53.064;8.624;2022-12-07T03:15:13;13.40;;;8.43;;
9997;SDS011;5038;53.064;8.624;2022-12-07T03:17:46;11.43;;;7.90;;
9997;SDS011;5038;53.064;8.624;2022-12-07T03:20:17;12.87;;;8.47;;
9997;SDS011;5038;53.064;8.624;2022-12-07T03:22:49;12.60;;;8.43;;
9997;SDS011;5038;53.064;8.624;2022-12-07T03:25:20;9.77;;;8.00;;
9997;SDS011;5038;53.064;8.624;2022-12-07T03:27:49;12.77;;;8.57;;
9997;SDS011;5038;53.064;8.624;2022-12-07T03:30:24;15.77;;;10.50;;
9997;SDS011;5038;53.064;8.624;2022-12-07T03:32:58;15.10;;;9.93;;
9997;SDS011;5038;53.064;8.624;2022-12-07T03:35:31;15.80;;;9.97;;
9997;SDS011;5038;53.064;8.624;2022-12-07T03:38:02;15.40;;;9.93;;
9997;SDS011;5038;53.064;8.624;2022-12-07T03:40:40;11.87;;;8.90;;
9997;SDS011;5038;53.064;8.624;2022-12-07T03:43:11;15.87;;;10.10;;
9997;SDS011;5038;53.064;8.624;2022-12-07T03:45:42;18.03;;;11.83;;
9997;SDS011;5038;53.064;8.624;2022-12-07T03:48:14;14.63;;;9.67;;
9997;SDS011;5038;53.064;8.624;2022-12-07T03:50:48;14.43;;;9.67;;
9997;SDS011;5038;53.064;8.624;2022-12-07T03:53:22;14.63;;;10.10;;
9997;SDS011;5038;53.064;8.624;2022-12-07T03:55:53;14.10;;;11.33;;
9997;SDS011;5038;53.064;8.624;2022-12-07T03:58:23;20.93;;;11.63;;
9997;SDS011;5038;53.064;8.624;2022-12-07T04:00:53;18.13;;;10.40;;
9997;SDS011;5038;53.064;8.624;2022-12-07T04:03:22;13.80;;;9.97;;
9997;SDS011;5038;53.064;8.624;2022-12-07T04:05:50;15.47;;;10.50;;
9997;SDS011;5038;53.064;8.624;2022-12-07T04:08:18;15.90;;;10.80;;
9997;SDS011;5038;53.064;8.624;2022-12-07T04:10:47;13.80;;;10.27;;
9997;SDS011;5038;53.064;8.624;2022-12-07T04:13:15;13.70;;;9.73;;
9997;SDS011;5038;53.064;8.624;2022-12-07T04:15:43;16.00;;;10.43;;
9997;SDS011;5038;53.064;8.624;2022-12-07T04:18:12;14.30;;;10.70;;
9997;SDS011;5038;53.064;8.624;2022-12-07T04:20:40;12.40;;;10.13;;
9997;SDS011;5038;53.064;8.624;2022-12-07T04:23:08;16.90;;;11.00;;
9997;SDS011;5038;53.064;8.624;2022-12-07T04:25:36;20.53;;;11.30;;
9997;SDS011;5038;53.064;8.624;2022-12-07T04:28:05;14.90;;;10.20;;
9997;SDS011;5038;53.064;8.624;2022-12-07T04:30:33;16.10;;;9.80;;
9997;SDS011;5038;53.064;8.624;2022-12-07T04:33:01;15.07;;;9.87;;
9997;SDS011;5038;53.064;8.624;2022-12-07T04:35:30;15.87;;;10.00;;
9997;SDS011;5038;53.064;8.624;2022-12-07T04:37:58;12.70;;;9.13;;
9997;SDS011;5038;53.064;8.624;2022-12-07T04:40:26;13.73;;;8.70;;
9997;SDS011;5038;53.064;8.624;2022-12-07T04:42:54;13.63;;;8.33;;
9997;SDS011;5038;53.064;8.624;2022-12-07T04:45:22;14.40;;;8.57;;
9997;SDS011;5038;53.064;8.624;2022-12-07T04:47:50;12.17;;;8.30;;
9997;SDS011;5038;53.064;8.624;2022-12-07T04:50:18;12.37;;;8.33;;
9997;SDS011;5038;53.064;8.624;2022-12-07T04:52:48;12.67;;;8.00;;
9997;SDS011;5038;53.064;8.624;2022-12-07T04:55:16;11.37;;;8.03;;
9997;SDS011;5038;53.064;8.624;2022-12-07T04:57:44;12.97;;;8.10;;
9997;SDS011;5038;53.064;8.624;2022-12-07T05:00:12;10.70;;;7.43;;
9997;SDS011;5038;53.064;8.624;2022-12-07T05:02:40;10.57;;;6.63;;
9997;SDS011;5038;53.064;8.624;2022-12-07T05:05:08;11.80;;;6.23;;
9997;SDS011;5038;53.064;8.624;2022-12-07T05:07:36;11.00;;;5.60;;
9997;SDS011;5038;53.064;8.624;2022-12-07T05:10:07;8.17;;;5.07;;
9997;SDS011;5038;53.064;8.624;2022-12-07T05:12:35;10.30;;;5.73;;
9997;SDS011;5038;53.064;8.624;2022-12-07T05:15:04;7.90;;;4.90;;
9997;SDS011;5038;53.064;8.624;2022-12-07T05:17:32;10.00;;;4.60;;
9997;SDS011;5038;53.064;8.624;2022-12-07T05:20:00;9.80;;;5.20;;
9997;SDS011;5038;53.064;8.624;2022-12-07T05:22:29;9.67;;;4.63;;
9997;SDS011;5038;53.064;8.624;2022-12-07T05:24:57;7.07;;;3.57;;
9997;SDS011;5038;53.064;8.624;2022-12-07T05:27:26;7.63;;;3.63;;
9997;SDS011;5038;53.064;8.624;2022-12-07T05:29:54;7.33;;;3.20;;
9997;SDS011;5038;53.064;8.624;2022-12-07T05:32:22;6.83;;;3.13;;
9997;SDS011;5038;53.064;8.624;2022-12-07T05:34:50;7.37;;;3.60;;
9997;SDS011;5038;53.064;8.624;2022-12-07T05:37:21;10.73;;;4.30;;
9997;SDS011;5038;53.064;8.624;2022-12-07T05:39:49;10.10;;;4.33;;
9997;SDS011;5038;53.064;8.624;2022-12-07T05:42:17;9.00;;;4.00;;
9997;SDS011;5038;53.064;8.624;2022-12-07T05:44:46;12.37;;;4.20;;
9997;SDS011;5038;53.064;8.624;2022-12-07T05:47:17;8.93;;;3.77;;
9997;SDS011;5038;53.064;8.624;2022-12-07T05:49:45;6.00;;;3.53;;
9997;SDS011;5038;53.064;8.624;2022-12-07T05:52:13;6.07;;;3.10;;
9997;SDS011;5038;53.064;8.624;2022-12-07T05:54:41;7.00;;;3.07;;
9997;SDS011;5038;53.064;8.624;2022-12-07T05:57:09;8.00;;;3.90;;
9997;SDS011;5038;53.064;8.624;2022-12-07T05:59:37;8.13;;;3.60;;
9997;SDS011;5038;53.064;8.624;2022-12-07T06:02:06;8.20;;;3.93;;
9997;SDS011;5038;53.064;8.624;2022-12-07T06:04:37;7.60;;;2.93;;
9997;SDS011;5038;53.064;8.624;2022-12-07T06:07:07;6.93;;;3.30;;
9997;SDS011;5038;53.064;8.624;2022-12-07T06:09:36;8.43;;;2.57;;
9997;SDS011;5038;53.064;8.624;2022-12-07T06:12:04;7.60;;;2.50;;
9997;SDS011;5038;53.064;8.624;2022-12-07T06:14:50;8.53;;;2.70;;
9997;SDS011;5038;53.064;8.624;2022-12-07T06:17:20;9.27;;;2.77;;
9997;SDS011;5038;53.064;8.624;2022-12-07T06:19:48;5.73;;;2.67;;
9997;SDS011;5038;53.064;8.624;2022-12-07T06:22:16;9.07;;;2.60;;
9997;SDS011;5038;53.064;8.624;2022-12-07T06:24:44;8.13;;;2.67;;
9997;SDS011;5038;53.064;8.624;2022-12-07T06:27:13;10.27;;;3.43;;
9997;SDS011;5038;53.064;8.624;2022-12-07T06:29:41;6.67;;;2.63;;
9997;SDS011;5038;53.064;8.624;2022-12-07T06:32:09;5.70;;;2.63;;
9997;SDS011;5038;53.064;8.624;2022-12-07T06:34:39;11.43;;;2.70;;
9997;SDS011;5038;53.064;8.624;2022-12-07T06:37:07;5.67;;;2.60;;
9997;SDS011;5038;53.064;8.624;2022-12-07T06:39:37;11.00;;;3.03;;
9997;SDS011;5038;53.064;8.624;2022-12-07T06:42:05;5.93;;;2.60;;
9997;SDS011;5038;53.064;8.624;2022-12-07T06:44:33;5.53;;;2.30;;
9997;SDS011;5038;53.064;8.624;2022-12-07T06:47:01;7.60;;;2.33;;
9997;SDS011;5038;53.064;8.624;2022-12-07T06:49:52;8.47;;;2.17;;
9997;SDS011;5038;53.064;8.624;2022-12-07T06:52:20;9.97;;;3.03;;
9997;SDS011;5038;53.064;8.624;2022-12-07T06:54:48;6.90;;;2.47;;
9997;SDS011;5038;53.064;8.624;2022-12-07T06:57:19;8.60;;;2.97;;
9997;SDS011;5038;53.064;8.624;2022-12-07T06:59:47;6.60;;;2.70;;
9997;SDS011;5038;53.064;8.624;2022-12-07T07:02:15;5.43;;;2.60;;
9997;SDS011;5038;53.064;8.624;2022-12-07T07:04:43;5.33;;;2.00;;
9997;SDS011;5038;53.064;8.624;2022-12-07T07:07:13;10.30;;;3.10;;
9997;SDS011;5038;53.064;8.624;2022-12-07T07:09:41;7.70;;;3.10;;
9997;SDS011;5038;53.064;8.624;2022-12-07T07:12:11;9.30;;;3.30;;
9997;SDS011;5038;53.064;8.624;2022-12-07T07:14:39;6.90;;;2.10;;
9997;SDS011;5038;53.064;8.624;2022-12-07T07:17:08;7.23;;;2.27;;
9997;SDS011;5038;53.064;8.624;2022-12-07T07:19:36;6.53;;;2.43;;
9997;SDS011;5038;53.064;8.624;2022-12-07T07:22:04;10.70;;;3.30;;
9997;SDS011;5038;53.064;8.624;2022-12-07T07:24:34;6.33;;;2.80;;
9997;SDS011;5038;53.064;8.624;2022-12-07T07:27:02;8.77;;;2.80;;
9997;SDS011;5038;53.064;8.624;2022-12-07T07:29:30;6.17;;;2.20;;
9997;SDS011;5038;53.064;8.624;2022-12-07T07:31:59;8.50;;;2.43;;
9997;SDS011;5038;53.064;8.624;2022-12-07T07:34:32;5.30;;;2.43;;
9997;SDS011;5038;53.064;8.624;2022-12-07T07:37:00;7.03;;;2.50;;
9997;SDS011;5038;53.064;8.624;2022-12-07T07:39:28;5.10;;;2.20;;
9997;SDS011;5038;53.064;8.624;2022-12-07T07:41:58;6.07;;;2.30;;
9997;SDS011;5038;53.064;8.624;2022-12-07T07:44:26;4.87;;;2.47;;
9997;SDS011;5038;53.064;8.624;2022-12-07T07:47:00;4.37;;;2.37;;
9997;SDS011;5038;53.064;8.624;2022-12-07T07:49:28;7.40;;;2.60;;
9997;SDS011;5038;53.064;8.624;2022-12-07T07:51:57;5.30;;;2.27;;
9997;SDS011;5038;53.064;8.624;2022-12-07T07:54:25;4.63;;;2.67;;
9997;SDS011;5038;53.064;8.624;2022-12-07T07:56:53;5.37;;;2.47;;
9997;SDS011;5038;53.064;8.624;2022-12-07T07:59:23;7.67;;;2.57;;
9997;SDS011;5038;53.064;8.624;2022-12-07T08:01:51;6.63;;;2.97;;
9997;SDS011;5038;53.064;8.624;2022-12-07T08:04:22;5.57;;;2.70;;
9997;SDS011;5038;53.064;8.624;2022-12-07T08:06:50;6.90;;;3.50;;
9997;SDS011;5038;53.064;8.624;2022-12-07T08:09:19;5.50;;;2.60;;
9997;SDS011;5038;53.064;8.624;2022-12-07T08:11:47;5.73;;;2.90;;
9997;SDS011;5038;53.064;8.624;2022-12-07T08:14:15;5.07;;;2.57;;
9997;SDS011;5038;53.064;8.624;2022-12-07T08:16:44;10.00;;;3.03;;
9997;SDS011;5038;53.064;8.624;2022-12-07T08:19:12;4.73;;;2.90;;
9997;SDS011;5038;53.064;8.624;2022-12-07T08:21:41;5.33;;;3.07;;
9997;SDS011;5038;53.064;8.624;2022-12-07T08:24:09;7.17;;;3.40;;
9997;SDS011;5038;53.064;8.624;2022-12-07T08:26:37;5.53;;;2.90;;
9997;SDS011;5038;53.064;8.624;2022-12-07T08:29:05;6.10;;;2.57;;
9997;SDS011;5038;53.064;8.624;2022-12-07T08:31:33;8.00;;;2.30;;
9997;SDS011;5038;53.064;8.624;2022-12-07T08:34:03;5.80;;;2.80;;
9997;SDS011;5038;53.064;8.624;2022-12-07T08:36:31;5.00;;;2.30;;
9997;SDS011;5038;53.064;8.624;2022-12-07T08:38:59;7.47;;;2.50;;
9997;SDS011;5038;53.064;8.624;2022-12-07T08:41:47;6.70;;;2.87;;
9997;SDS011;5038;53.064;8.624;2022-12-07T08:44:15;7.77;;;3.47;;
9997;SDS011;5038;53.064;8.624;2022-12-07T08:46:45;6.03;;;2.50;;
9997;SDS011;5038;53.064;8.624;2022-12-07T08:49:18;5.70;;;2.40;;
9997;SDS011;5038;53.064;8.624;2022-12-07T08:51:49;7.10;;;2.83;;
9997;SDS011;5038;53.064;8.624;2022-12-07T08:54:18;6.97;;;3.03;;
9997;SDS011;5038;53.064;8.624;2022-12-07T08:56:47;7.40;;;3.40;;
9997;SDS011;5038;53.064;8.624;2022-12-07T08:59:24;8.53;;;3.63;;
9997;SDS011;5038;53.064;8.624;2022-12-07T09:01:54;8.17;;;2.70;;
9997;SDS011;5038;53.064;8.624;2022-12-07T09:04:23;8.67;;;2.77;;
9997;SDS011;5038;53.064;8.624;2022-12-07T09:06:51;5.70;;;2.40;;
9997;SDS011;5038;53.064;8.624;2022-12-07T09:09:21;7.37;;;2.90;;
9997;SDS011;5038;53.064;8.624;2022-12-07T09:11:49;6.50;;;3.37;;
9997;SDS011;5038;53.064;8.624;2022-12-07T09:14:17;7.10;;;3.73;;
9997;SDS011;5038;53.064;8.624;2022-12-07T09:16:45;8.53;;;4.77;;
9997;SDS011;5038;53.064;8.624;2022-12-07T09:19:13;8.37;;;4.37;;
9997;SDS011;5038;53.064;8.624;2022-12-07T09:21:43;6.90;;;5.13;;
9997;SDS011;5038;53.064;8.624;2022-12-07T09:24:11;6.43;;;4.40;;
9997;SDS011;5038;53.064;8.624;2022-12-07T09:26:42;8.13;;;4.60;;
9997;SDS011;5038;53.064;8.624;2022-12-07T09:29:10;7.43;;;5.00;;
9997;SDS011;5038;53.064;8.624;2022-12-07T09:31:39;8.60;;;4.70;;
9997;SDS011;5038;53.064;8.624;2022-12-07T09:34:08;6.67;;;4.27;;
9997;SDS011;5038;53.064;8.624;2022-12-07T09:36:36;8.87;;;4.93;;
9997;SDS011;5038;53.064;8.624;2022-12-07T09:39:05;8.57;;;5.07;;
9997;SDS011;5038;53.064;8.624;2022-12-07T09:41:34;9.10;;;5.83;;
9997;SDS011;5038;53.064;8.624;2022-12-07T09:44:06;10.57;;;5.60;;
9997;SDS011;5038;53.064;8.624;2022-12-07T09:46:39;6.77;;;5.17;;
9997;SDS011;5038;53.064;8.624;2022-12-07T09:49:10;10.93;;;4.70;;
9997;SDS011;5038;53.064;8.624;2022-12-07T09:51:40;9.83;;;5.60;;
9997;SDS011;5038;53.064;8.624;2022-12-07T09:54:11;9.43;;;5.57;;
9997;SDS011;5038;53.064;8.624;2022-12-07T09:56:41;9.03;;;5.43;;
9997;SDS011;5038;53.064;8.624;2022-12-07T09:59:12;12.57;;;6.17;;
9997;SDS011;5038;53.064;8.624;2022-12-07T10:01:44;8.57;;;5.43;;
9997;SDS011;5038;53.064;8.624;2022-12-07T10:04:15;9.70;;;6.17;;
9997;SDS011;5038;53.064;8.624;2022-12-07T10:06:47;9.03;;;5.40;;
9997;SDS011;5038;53.064;8.624;2022-12-07T10:09:19;8.80;;;5.10;;
9997;SDS011;5038;53.064;8.624;2022-12-07T10:11:57;6.03;;;4.50;;
9997;SDS011;5038;53.064;8.624;2022-12-07T10:14:29;9.60;;;4.97;;
9997;SDS011;5038;53.064;8.624;2022-12-07T10:17:31;7.70;;;2.87;;
9997;SDS011;5038;53.064;8.624;2022-12-07T10:20:13;6.50;;;2.70;;
9997;SDS011;5038;53.064;8.624;2022-12-07T10:22:56;5.60;;;2.27;;
9997;SDS011;5038;53.064;8.624;2022-12-07T10:25:29;7.87;;;2.70;;
9997;SDS011;5038;53.064;8.624;2022-12-07T10:28:00;8.83;;;3.67;;
9997;SDS011;5038;53.064;8.624;2022-12-07T10:30:46;7.50;;;3.57;;
9997;SDS011;5038;53.064;8.624;2022-12-07T10:33:27;7.33;;;3.33;;
9997;SDS011;5038;53.064;8.624;2022-12-07T10:35:59;8.43;;;3.50;;
9997;SDS011;5038;53.064;8.624;2022-12-07T10:38:36;8.33;;;3.97;;
9997;SDS011;5038;53.064;8.624;2022-12-07T10:41:14;6.10;;;3.67;;
9997;SDS011;5038;53.064;8.624;2022-12-07T10:43:50;8.93;;;3.73;;
9997;SDS011;5038;53.064;8.624;2022-12-07T10:46:29;7.00;;;3.07;;
9997;SDS011;5038;53.064;8.624;2022-12-07T10:49:19;7.53;;;3.33;;
9997;SDS011;5038;53.064;8.624;2022-12-07T10:52:05;7.90;;;3.37;;
9997;SDS011;5038;53.064;8.624;2022-12-07T10:54:41;7.17;;;3.37;;
9997;SDS011;5038;53.064;8.624;2022-12-07T10:57:21;6.63;;;2.80;;
9997;SDS011;5038;53.064;8.624;2022-12-07T10:59:58;7.03;;;3.33;;
9997;SDS011;5038;53.064;8.624;2022-12-07T11:02:35;7.03;;;3.40;;
9997;SDS011;5038;53.064;8.624;2022-12-07T11:05:22;8.10;;;3.13;;
9997;SDS011;5038;53.064;8.624;2022-12-07T11:07:58;8.53;;;3.27;;
9997;SDS011;5038;53.064;8.624;2022-12-07T11:10:36;6.03;;;3.47;;
9997;SDS011;5038;53.064;8.624;2022-12-07T11:13:15;10.30;;;3.13;;
9997;SDS011;5038;53.064;8.624;2022-12-07T11:16:05;10.43;;;3.33;;
9997;SDS011;5038;53.064;8.624;2022-12-07T11:18:45;7.40;;;3.73;;
9997;SDS011;5038;53.064;8.624;2022-12-07T11:21:20;7.90;;;3.43;;
9997;SDS011;5038;53.064;8.624;2022-12-07T11:23:56;5.53;;;2.93;;
9997;SDS011;5038;53.064;8.624;2022-12-07T11:26:37;6.73;;;3.33;;
9997;SDS011;5038;53.064;8.624;2022-12-07T11:29:28;6.73;;;3.10;;
9997;SDS011;5038;53.064;8.624;2022-12-07T11:32:17;7.27;;;3.23;;
9997;SDS011;5038;53.064;8.624;2022-12-07T11:34:56;8.00;;;3.83;;
9997;SDS011;5038;53.064;8.624;2022-12-07T11:37:31;8.47;;;3.30;;
9997;SDS011;5038;53.064;8.624;2022-12-07T11:40:05;11.17;;;3.10;;
9997;SDS011;5038;53.064;8.624;2022-12-07T11:42:45;8.80;;;2.50;;
9997;SDS011;5038;53.064;8.624;2022-12-07T11:45:21;7.57;;;3.40;;
9997;SDS011;5038;53.064;8.624;2022-12-07T11:47:54;8.83;;;3.77;;
9997;SDS011;5038;53.064;8.624;2022-12-07T11:50:27;10.70;;;3.50;;
9997;SDS011;5038;53.064;8.624;2022-12-07T11:53:01;6.57;;;2.93;;
9997;SDS011;5038;53.064;8.624;2022-12-07T11:55:38;5.40;;;2.90;;
9997;SDS011;5038;53.064;8.624;2022-12-07T11:58:13;10.00;;;3.50;;
9997;SDS011;5038;53.064;8.624;2022-12-07T12:01:08;8.30;;;2.70;;
9997;SDS011;5038;53.064;8.624;2022-12-07T12:03:46;7.37;;;2.70;;
9997;SDS011;5038;53.064;8.624;2022-12-07T12:06:19;8.30;;;2.40;;
9997;SDS011;5038;53.064;8.624;2022-12-07T12:08:48;6.00;;;2.27;;
9997;SDS011;5038;53.064;8.624;2022-12-07T12:11:47;8.70;;;2.27;;
9997;SDS011;5038;53.064;8.624;2022-12-07T12:14:51;5.50;;;2.10;;
9997;SDS011;5038;53.064;8.624;2022-12-07T12:17:32;5.97;;;2.17;;
9997;SDS011;5038;53.064;8.624;2022-12-07T12:20:20;6.17;;;2.87;;
9997;SDS011;5038;53.064;8.624;2022-12-07T12:22:55;7.20;;;2.77;;
9997;SDS011;5038;53.064;8.624;2022-12-07T12:25:29;8.73;;;3.20;;
9997;SDS011;5038;53.064;8.624;2022-12-07T12:28:03;15.73;;;3.70;;
9997;SDS011;5038;53.064;8.624;2022-12-07T12:30:33;8.70;;;4.03;;
9997;SDS011;5038;53.064;8.624;2022-12-07T12:33:05;11.17;;;3.13;;
9997;SDS011;5038;53.064;8.624;2022-12-07T12:35:40;7.43;;;2.30;;
9997;SDS011;5038;53.064;8.624;2022-12-07T12:38:25;14.67;;;3.00;;
9997;SDS011;5038;53.064;8.624;2022-12-07T12:40:56;9.20;;;3.23;;
9997;SDS011;5038;53.064;8.624;2022-12-07T12:43:44;8.80;;;3.07;;
9997;SDS011;5038;53.064;8.624;2022-12-07T12:55:29;7.47;;;2.50;;
9997;SDS011;5038;53.064;8.624;2022-12-07T12:58:42;7.57;;;2.80;;
9997;SDS011;5038;53.064;8.624;2022-12-07T13:10:35;6.87;;;2.70;;
9997;SDS011;5038;53.064;8.624;2022-12-07T13:13:29;7.00;;;2.37;;
9997;SDS011;5038;53.064;8.624;2022-12-07T13:22:52;8.40;;;3.20;;
9997;SDS011;5038;53.064;8.624;2022-12-07T13:25:33;7.43;;;2.60;;
9997;SDS011;5038;53.064;8.624;2022-12-07T13:28:09;9.23;;;2.87;;
9997;SDS011;5038;53.064;8.624;2022-12-07T13:30:44;7.13;;;2.77;;
9997;SDS011;5038;53.064;8.624;2022-12-07T13:33:15;9.67;;;3.20;;
9997;SDS011;5038;53.064;8.624;2022-12-07T13:35:46;8.40;;;3.07;;
9997;SDS011;5038;53.064;8.624;2022-12-07T13:38:27;6.23;;;2.30;;
9997;SDS011;5038;53.064;8.624;2022-12-07T13:41:00;4.50;;;1.90;;
9997;SDS011;5038;53.064;8.624;2022-12-07T13:43:30;8.33;;;2.20;;
9997;SDS011;5038;53.064;8.624;2022-12-07T13:45:58;4.80;;;2.00;;
9997;SDS011;5038;53.064;8.624;2022-12-07T13:48:29;6.43;;;2.10;;
9997;SDS011;5038;53.064;8.624;2022-12-07T13:51:00;4.17;;;1.80;;
9997;SDS011;5038;53.064;8.624;2022-12-07T13:53:31;3.67;;;2.10;;
9997;SDS011;5038;53.064;8.624;2022-12-07T13:55:59;5.30;;;2.10;;
9997;SDS011;5038;53.064;8.624;2022-12-07T13:58:29;5.80;;;2.50;;
9997;SDS011;5038;53.064;8.624;2022-12-07T14:00:59;6.10;;;2.53;;
9997;SDS011;5038;53.064;8.624;2022-12-07T14:03:29;4.87;;;2.07;;
9997;SDS011;5038;53.064;8.624;2022-12-07T14:06:06;4.47;;;1.70;;
9997;SDS011;5038;53.064;8.624;2022-12-07T14:08:43;7.60;;;3.20;;
9997;SDS011;5038;53.064;8.624;2022-12-07T14:11:16;6.80;;;2.40;;
9997;SDS011;5038;53.064;8.624;2022-12-07T14:13:56;6.00;;;2.30;;
9997;SDS011;5038;53.064;8.624;2022-12-07T14:16:27;3.70;;;1.90;;
9997;SDS011;5038;53.064;8.624;2022-12-07T14:18:57;6.70;;;2.20;;
9997;SDS011;5038;53.064;8.624;2022-12-07T14:21:27;4.50;;;2.17;;
9997;SDS011;5038;53.064;8.624;2022-12-07T14:26:47;4.27;;;1.60;;
9997;SDS011;5038;53.064;8.624;2022-12-07T14:29:20;4.63;;;1.97;;
9997;SDS011;5038;53.064;8.624;2022-12-07T14:31:50;5.93;;;2.50;;
9997;SDS011;5038;53.064;8.624;2022-12-07T14:34:19;5.83;;;2.50;;
9997;SDS011;5038;53.064;8.624;2022-12-07T14:36:47;4.20;;;1.90;;
9997;SDS011;5038;53.064;8.624;2022-12-07T14:39:16;5.60;;;2.63;;
9997;SDS011;5038;53.064;8.624;2022-12-07T14:41:48;5.90;;;2.17;;
9997;SDS011;5038;53.064;8.624;2022-12-07T14:44:20;6.27;;;2.80;;
9997;SDS011;5038;53.064;8.624;2022-12-07T14:46:54;7.40;;;2.40;;
9997;SDS011;5038;53.064;8.624;2022-12-07T14:49:42;6.83;;;2.40;;
9997;SDS011;5038;53.064;8.624;2022-12-07T14:52:12;4.03;;;2.00;;
9997;SDS011;5038;53.064;8.624;2022-12-07T14:55:04;6.27;;;2.53;;
9997;SDS011;5038;53.064;8.624;2022-12-07T14:57:40;5.57;;;2.83;;
9997;SDS011;5038;53.064;8.624;2022-12-07T15:00:09;5.60;;;1.93;;
9997;SDS011;5038;53.064;8.624;2022-12-07T15:02:43;5.40;;;1.80;;
9997;SDS011;5038;53.064;8.624;2022-12-07T15:05:11;5.33;;;2.50;;
9997;SDS011;5038;53.064;8.624;2022-12-07T15:07:42;4.80;;;2.73;;
9997;SDS011;5038;53.064;8.624;2022-12-07T15:10:15;7.23;;;3.93;;
9997;SDS011;5038;53.064;8.624;2022-12-07T15:12:49;4.80;;;2.97;;
9997;SDS011;5038;53.064;8.624;2022-12-07T15:15:18;5.10;;;3.00;;
9997;SDS011;5038;53.064;8.624;2022-12-07T15:17:46;5.03;;;3.00;;
9997;SDS011;5038;53.064;8.624;2022-12-07T15:20:14;5.47;;;3.27;;
9997;SDS011;5038;53.064;8.624;2022-12-07T15:22:43;6.77;;;3.37;;
9997;SDS011;5038;53.064;8.624;2022-12-07T15:25:13;5.40;;;2.77;;
9997;SDS011;5038;53.064;8.624;2022-12-07T15:27:44;5.20;;;2.27;;
9997;SDS011;5038;53.064;8.624;2022-12-07T15:30:12;3.97;;;2.30;;
9997;SDS011;5038;53.064;8.624;2022-12-07T15:32:41;5.37;;;2.67;;
9997;SDS011;5038;53.064;8.624;2022-12-07T15:35:09;9.43;;;3.30;;
9997;SDS011;5038;53.064;8.624;2022-12-07T15:37:37;4.97;;;2.07;;
9997;SDS011;5038;53.064;8.624;2022-12-07T15:40:06;6.03;;;2.63;;
9997;SDS011;5038;53.064;8.624;2022-12-07T15:42:36;5.53;;;3.57;;
9997;SDS011;5038;53.064;8.624;2022-12-07T15:45:05;9.40;;;4.83;;
9997;SDS011;5038;53.064;8.624;2022-12-07T15:47:34;6.33;;;3.37;;
9997;SDS011;5038;53.064;8.624;2022-12-07T15:50:24;6.43;;;5.00;;
9997;SDS011;5038;53.064;8.624;2022-12-07T15:52:52;6.93;;;3.93;;
9997;SDS011;5038;53.064;8.624;2022-12-07T15:55:20;8.27;;;3.67;;
9997;SDS011;5038;53.064;8.624;2022-12-07T15:57:49;5.43;;;3.50;;
9997;SDS011;5038;53.064;8.624;2022-12-07T16:00:18;7.73;;;3.93;;
9997;SDS011;5038;53.064;8.624;2022-12-07T16:02:47;8.63;;;5.30;;
9997;SDS011;5038;53.064;8.624;2022-12-07T16:05:15;9.13;;;5.23;;
9997;SDS011;5038;53.064;8.624;2022-12-07T16:07:43;6.87;;;4.87;;
9997;SDS011;5038;53.064;8.624;2022-12-07T16:10:13;6.40;;;4.30;;
9997;SDS011;5038;53.064;8.624;2022-12-07T16:12:41;6.97;;;4.60;;